createdAt,value
2023-01-06T00:01:25.000Z,281.46
2023-01-06T00:02:51.000Z,281.46
2023-01-06T00:04:57.000Z,281.46
2023-01-06T00:07:49.000Z,281.4
2023-01-06T00:09:15.000Z,281.4
2023-01-06T00:11:21.000Z,281.34
2023-01-06T00:12:48.000Z,281.4
2023-01-06T00:14:54.000Z,281.34
2023-01-06T00:16:21.000Z,281.4
2023-01-06T00:18:27.000Z,281.34
2023-01-06T00:19:53.000Z,281.4
2023-01-06T00:21:59.000Z,281.34
2023-01-06T00:23:26.000Z,281.4
2023-01-06T00:25:32.000Z,281.34
2023-01-06T00:26:58.000Z,281.34
2023-01-06T00:29:04.000Z,281.34
2023-01-06T00:30:31.000Z,281.46
2023-01-06T00:32:37.000Z,281.4
2023-01-06T00:34:04.000Z,281.46
2023-01-06T00:36:10.000Z,281.65
2023-01-06T00:37:36.000Z,281.71
2023-01-06T00:39:42.000Z,281.71
2023-01-06T00:41:09.000Z,281.77
2023-01-06T00:43:15.000Z,281.77
2023-01-06T00:46:06.000Z,281.84
2023-01-06T00:47:32.000Z,281.9
2023-01-06T00:49:39.000Z,281.96
2023-01-06T00:51:05.000Z,281.96
2023-01-06T00:53:11.000Z,281.9
2023-01-06T00:54:38.000Z,281.9
2023-01-06T00:56:44.000Z,281.9
2023-01-06T00:58:11.000Z,281.96
2023-01-06T01:00:17.000Z,281.96
2023-01-06T01:01:43.000Z,281.9
2023-01-06T01:03:50.000Z,281.96
2023-01-06T01:05:16.000Z,282.02
2023-01-06T01:07:22.000Z,281.96
2023-01-06T01:08:49.000Z,281.96
2023-01-06T01:10:55.000Z,281.96
2023-01-06T01:12:21.000Z,282.02
2023-01-06T01:14:27.000Z,281.96
2023-01-06T01:15:54.000Z,281.9
2023-01-06T01:18:00.000Z,281.9
2023-01-06T01:19:27.000Z,281.96
2023-01-06T01:21:33.000Z,281.96
2023-01-06T01:24:24.000Z,282.02
2023-01-06T01:25:51.000Z,281.96
2023-01-06T01:27:57.000Z,281.9
2023-01-06T01:29:23.000Z,281.9
2023-01-06T01:31:29.000Z,281.9
2023-01-06T01:32:56.000Z,281.9
2023-01-06T01:35:02.000Z,281.84
2023-01-06T01:36:29.000Z,281.9
2023-01-06T01:38:35.000Z,281.84
2023-01-06T01:40:01.000Z,281.9
2023-01-06T01:42:07.000Z,281.84
2023-01-06T01:43:34.000Z,281.9
2023-01-06T01:45:40.000Z,281.84
2023-01-06T01:47:07.000Z,281.84
2023-01-06T01:49:13.000Z,281.84
2023-01-06T01:50:39.000Z,281.77
2023-01-06T01:52:45.000Z,281.77
2023-01-06T01:54:12.000Z,281.77
2023-01-06T01:56:18.000Z,281.77
2023-01-06T01:57:44.000Z,281.84
2023-01-06T01:59:51.000Z,281.84
2023-01-06T02:02:42.000Z,281.9
2023-01-06T02:04:09.000Z,281.84
2023-01-06T02:06:15.000Z,281.9
2023-01-06T02:07:41.000Z,281.84
2023-01-06T02:09:48.000Z,281.84
2023-01-06T02:11:14.000Z,281.84
2023-01-06T02:13:20.000Z,281.84
2023-01-06T02:14:47.000Z,281.84
2023-01-06T02:16:53.000Z,281.9
2023-01-06T02:18:19.000Z,281.84
2023-01-06T02:20:25.000Z,281.84
2023-01-06T02:21:52.000Z,281.96
2023-01-06T02:23:58.000Z,281.9
2023-01-06T02:25:25.000Z,281.9
2023-01-06T02:27:31.000Z,281.9
2023-01-06T02:28:57.000Z,281.96
2023-01-06T02:31:03.000Z,281.96
2023-01-06T02:32:30.000Z,282.02
2023-01-06T02:34:36.000Z,282.09
2023-01-06T02:36:03.000Z,282.09
2023-01-06T02:38:09.000Z,282.15
2023-01-06T02:41:00.000Z,282.02
2023-01-06T02:42:27.000Z,282.09
2023-01-06T02:44:33.000Z,282.15
2023-01-06T02:45:59.000Z,282.15
2023-01-06T02:48:06.000Z,282.15
2023-01-06T02:49:32.000Z,282.09
2023-01-06T02:51:38.000Z,282.02
2023-01-06T02:53:05.000Z,282.02
2023-01-06T02:55:11.000Z,282.09
2023-01-06T02:56:37.000Z,282.02
2023-01-06T02:58:44.000Z,282.02
2023-01-06T03:00:10.000Z,282.02
2023-01-06T03:02:16.000Z,282.09
2023-01-06T03:03:43.000Z,282.15
2023-01-06T03:05:49.000Z,282.09
2023-01-06T03:07:16.000Z,282.09
2023-01-06T03:09:22.000Z,282.02
2023-01-06T03:10:48.000Z,281.96
2023-01-06T03:12:54.000Z,282.02
2023-01-06T03:14:21.000Z,282.09
2023-01-06T03:16:27.000Z,282.15
2023-01-06T03:19:18.000Z,282.21
2023-01-06T03:20:44.000Z,282.34
2023-01-06T03:22:51.000Z,282.21
2023-01-06T03:24:17.000Z,282.27
2023-01-06T03:26:23.000Z,282.21
2023-01-06T03:27:50.000Z,282.21
2023-01-06T03:29:56.000Z,282.21
2023-01-06T03:31:22.000Z,282.21
2023-01-06T03:33:29.000Z,282.15
2023-01-06T03:34:55.000Z,282.09
2023-01-06T03:37:01.000Z,282.09
2023-01-06T03:38:28.000Z,282.02
2023-01-06T03:40:34.000Z,282.02
2023-01-06T03:42:01.000Z,282.09
2023-01-06T03:44:07.000Z,282.09
2023-01-06T03:45:33.000Z,282.02
2023-01-06T03:47:39.000Z,281.96
2023-01-06T03:49:06.000Z,281.96
2023-01-06T03:51:12.000Z,281.96
2023-01-06T03:52:39.000Z,281.96
2023-01-06T03:54:45.000Z,282.02
2023-01-06T03:57:36.000Z,281.96
2023-01-06T03:59:03.000Z,281.96
2023-01-06T04:01:09.000Z,281.9
2023-01-06T04:02:35.000Z,281.96
2023-01-06T04:04:41.000Z,281.96
2023-01-06T04:06:08.000Z,282.02
2023-01-06T04:08:14.000Z,281.96
2023-01-06T04:09:40.000Z,282.02
2023-01-06T04:11:47.000Z,282.02
2023-01-06T04:13:13.000Z,281.96
2023-01-06T04:15:19.000Z,281.96
2023-01-06T04:16:46.000Z,281.9
2023-01-06T04:18:52.000Z,281.96
2023-01-06T04:20:18.000Z,281.96
2023-01-06T04:22:25.000Z,282.02
2023-01-06T04:23:51.000Z,282.09
2023-01-06T04:25:57.000Z,282.02
2023-01-06T04:27:24.000Z,282.09
2023-01-06T04:29:30.000Z,282.21
2023-01-06T04:30:57.000Z,282.27
2023-01-06T04:33:03.000Z,282.15
2023-01-06T04:35:54.000Z,282.15
2023-01-06T04:37:20.000Z,282.15
2023-01-06T04:39:27.000Z,282.02
2023-01-06T04:40:53.000Z,282.02
2023-01-06T04:42:59.000Z,281.96
2023-01-06T04:44:26.000Z,281.96
2023-01-06T04:46:32.000Z,282.02
2023-01-06T04:47:58.000Z,281.96
2023-01-06T04:50:04.000Z,281.96
2023-01-06T04:51:31.000Z,282.02
2023-01-06T04:53:37.000Z,281.96
2023-01-06T04:55:04.000Z,281.9
2023-01-06T04:57:10.000Z,281.96
2023-01-06T04:58:36.000Z,281.9
2023-01-06T05:00:42.000Z,281.84
2023-01-06T05:02:09.000Z,281.71
2023-01-06T05:04:15.000Z,281.9
2023-01-06T05:05:41.000Z,281.96
2023-01-06T05:07:48.000Z,281.84
2023-01-06T05:09:14.000Z,281.77
2023-01-06T05:11:20.000Z,281.77
2023-01-06T05:14:11.000Z,281.65
2023-01-06T05:15:38.000Z,281.71
2023-01-06T05:17:44.000Z,281.71
2023-01-06T05:19:11.000Z,281.71
2023-01-06T05:21:17.000Z,281.71
2023-01-06T05:22:43.000Z,281.65
2023-01-06T05:24:49.000Z,281.65
2023-01-06T05:26:16.000Z,281.71
2023-01-06T05:28:22.000Z,281.84
2023-01-06T05:32:27.000Z,282.02
2023-01-06T05:33:54.000Z,282.21
2023-01-06T05:36:00.000Z,282.15
2023-01-06T05:37:26.000Z,282.02
2023-01-06T05:39:32.000Z,282.09
2023-01-06T05:40:59.000Z,282.09
2023-01-06T05:43:05.000Z,282.02
2023-01-06T05:44:32.000Z,281.96
2023-01-06T05:46:38.000Z,282.02
2023-01-06T05:48:04.000Z,281.96
2023-01-06T05:50:10.000Z,281.9
2023-01-06T05:53:02.000Z,281.96
2023-01-06T05:54:28.000Z,282.09
2023-01-06T05:56:34.000Z,282.09
2023-01-06T05:58:01.000Z,282.09
2023-01-06T06:00:07.000Z,282.09
2023-01-06T06:01:34.000Z,282.09
2023-01-06T06:03:40.000Z,282.15
2023-01-06T06:05:06.000Z,282.09
2023-01-06T06:07:13.000Z,282.09
2023-01-06T06:08:39.000Z,282.09
2023-01-06T06:10:45.000Z,282.09
2023-01-06T06:12:12.000Z,281.96
2023-01-06T06:14:18.000Z,281.96
2023-01-06T06:15:44.000Z,281.9
2023-01-06T06:17:51.000Z,281.96
2023-01-06T06:19:17.000Z,281.9
2023-01-06T06:21:23.000Z,281.9
2023-01-06T06:22:50.000Z,281.96
2023-01-06T06:24:56.000Z,281.84
2023-01-06T06:26:22.000Z,281.77
2023-01-06T06:28:28.000Z,281.71
2023-01-06T06:31:20.000Z,281.71
2023-01-06T06:32:47.000Z,281.84
2023-01-06T06:34:53.000Z,281.71
2023-01-06T06:36:19.000Z,281.71
2023-01-06T06:38:25.000Z,281.71
2023-01-06T06:39:52.000Z,281.9
2023-01-06T06:41:58.000Z,281.9
2023-01-06T06:43:24.000Z,281.9
2023-01-06T06:45:31.000Z,281.84
2023-01-06T06:46:57.000Z,281.84
2023-01-06T06:49:03.000Z,281.9
2023-01-06T06:50:30.000Z,281.9
2023-01-06T06:52:36.000Z,281.9
2023-01-06T06:54:02.000Z,281.84
2023-01-06T06:56:08.000Z,281.9
2023-01-06T06:57:35.000Z,281.9
2023-01-06T06:59:41.000Z,281.9
2023-01-06T07:01:08.000Z,281.84
2023-01-06T07:03:14.000Z,281.84
2023-01-06T07:04:40.000Z,281.84
2023-01-06T07:06:47.000Z,281.9
2023-01-06T07:09:38.000Z,281.84
2023-01-06T07:11:04.000Z,281.84
2023-01-06T07:13:10.000Z,281.77
2023-01-06T07:14:37.000Z,281.71
2023-01-06T07:16:43.000Z,281.71
2023-01-06T07:18:09.000Z,281.77
2023-01-06T07:20:15.000Z,281.77
2023-01-06T07:21:42.000Z,281.71
2023-01-06T07:23:48.000Z,281.71
2023-01-06T07:25:15.000Z,281.71
2023-01-06T07:27:21.000Z,281.77
2023-01-06T07:28:47.000Z,281.71
2023-01-06T07:30:53.000Z,281.71
2023-01-06T07:32:20.000Z,281.77
2023-01-06T07:34:26.000Z,281.84
2023-01-06T07:35:53.000Z,281.84
2023-01-06T07:37:59.000Z,281.9
2023-01-06T07:39:25.000Z,281.9
2023-01-06T07:41:31.000Z,281.9
2023-01-06T07:42:58.000Z,281.84
2023-01-06T07:45:04.000Z,281.9
2023-01-06T07:47:55.000Z,281.9
2023-01-06T07:49:22.000Z,281.9
2023-01-06T07:51:28.000Z,281.84
2023-01-06T07:52:55.000Z,281.9
2023-01-06T07:55:01.000Z,281.96
2023-01-06T07:56:27.000Z,282.02
2023-01-06T07:58:33.000Z,282.02
2023-01-06T08:00:00.000Z,282.02
2023-01-06T08:02:06.000Z,281.96
2023-01-06T08:03:32.000Z,281.96
2023-01-06T08:05:39.000Z,281.9
2023-01-06T08:07:05.000Z,281.9
2023-01-06T08:09:11.000Z,281.96
2023-01-06T08:10:38.000Z,281.96
2023-01-06T08:12:44.000Z,281.9
2023-01-06T08:14:11.000Z,281.9
2023-01-06T08:16:17.000Z,281.9
2023-01-06T08:17:43.000Z,281.96
2023-01-06T08:19:50.000Z,281.9
2023-01-06T08:21:16.000Z,281.96
2023-01-06T08:23:22.000Z,281.96
2023-01-06T08:26:13.000Z,281.96
2023-01-06T08:27:40.000Z,281.96
2023-01-06T08:29:46.000Z,281.96
2023-01-06T08:31:12.000Z,281.96
2023-01-06T08:33:19.000Z,282.02
2023-01-06T08:34:45.000Z,282.02
2023-01-06T08:36:51.000Z,281.96
2023-01-06T08:38:18.000Z,282.02
2023-01-06T08:40:24.000Z,282.02
2023-01-06T08:41:50.000Z,282.02
2023-01-06T08:43:56.000Z,282.02
2023-01-06T08:45:23.000Z,282.09
2023-01-06T08:47:29.000Z,282.09
2023-01-06T08:48:56.000Z,282.02
2023-01-06T08:51:02.000Z,282.02
2023-01-06T08:52:28.000Z,282.02
2023-01-06T08:54:34.000Z,282.02
2023-01-06T08:56:01.000Z,282.02
2023-01-06T08:58:07.000Z,282.02
2023-01-06T08:59:34.000Z,282.02
2023-01-06T09:01:40.000Z,281.96
2023-01-06T09:04:31.000Z,282.02
2023-01-06T09:05:58.000Z,282.02
2023-01-06T09:08:04.000Z,282.02
2023-01-06T09:09:30.000Z,282.02
2023-01-06T09:11:36.000Z,282.02
2023-01-06T09:13:03.000Z,282.09
2023-01-06T09:15:09.000Z,282.09
2023-01-06T09:16:36.000Z,282.09
2023-01-06T09:18:42.000Z,282.02
2023-01-06T09:20:08.000Z,282.02
2023-01-06T09:22:14.000Z,282.02
2023-01-06T09:23:41.000Z,281.96
2023-01-06T09:25:47.000Z,282.02
2023-01-06T09:27:14.000Z,281.96
2023-01-06T09:29:20.000Z,281.96
2023-01-06T09:30:46.000Z,281.96
2023-01-06T09:32:53.000Z,281.96
2023-01-06T09:34:19.000Z,281.96
2023-01-06T09:36:25.000Z,281.96
2023-01-06T09:37:52.000Z,282.02
2023-01-06T09:39:58.000Z,281.96
2023-01-06T09:42:49.000Z,282.02
2023-01-06T09:44:16.000Z,281.96
2023-01-06T09:46:22.000Z,281.96
2023-01-06T09:47:48.000Z,281.96
2023-01-06T09:49:54.000Z,281.96
2023-01-06T09:51:21.000Z,281.96
2023-01-06T09:53:27.000Z,281.96
2023-01-06T09:54:53.000Z,281.96
2023-01-06T09:57:00.000Z,281.96
2023-01-06T09:58:26.000Z,281.96
2023-01-06T10:00:32.000Z,281.96
2023-01-06T10:01:59.000Z,281.9
2023-01-06T10:04:05.000Z,281.96
2023-01-06T10:05:32.000Z,281.96
2023-01-06T10:07:38.000Z,281.96
2023-01-06T10:09:05.000Z,281.96
2023-01-06T10:11:11.000Z,281.96
2023-01-06T10:12:37.000Z,281.9
2023-01-06T10:14:43.000Z,281.96
2023-01-06T10:16:10.000Z,281.96
2023-01-06T10:18:16.000Z,281.96
2023-01-06T10:21:07.000Z,281.96
2023-01-06T10:22:34.000Z,281.96
2023-01-06T10:24:40.000Z,282.02
2023-01-06T10:26:06.000Z,282.09
2023-01-06T10:28:13.000Z,282.09
2023-01-06T10:29:39.000Z,282.15
2023-01-06T10:31:45.000Z,282.15
2023-01-06T10:33:12.000Z,282.15
2023-01-06T10:35:18.000Z,282.15
2023-01-06T10:36:45.000Z,282.21
2023-01-06T10:38:51.000Z,282.15
2023-01-06T10:40:17.000Z,282.21
2023-01-06T10:42:24.000Z,282.15
2023-01-06T10:43:50.000Z,282.15
2023-01-06T10:45:56.000Z,282.15
2023-01-06T10:47:23.000Z,282.15
2023-01-06T10:49:29.000Z,282.15
2023-01-06T10:50:55.000Z,282.15
2023-01-06T10:53:02.000Z,282.15
2023-01-06T10:54:28.000Z,282.15
2023-01-06T10:56:35.000Z,282.15
2023-01-06T10:59:26.000Z,282.15
2023-01-06T11:00:52.000Z,282.15
2023-01-06T11:02:58.000Z,282.15
2023-01-06T11:04:44.000Z,282.21
2023-01-06T11:06:50.000Z,282.15
2023-01-06T11:08:16.000Z,282.15
2023-01-06T11:10:22.000Z,282.09
2023-01-06T11:11:49.000Z,282.09
2023-01-06T11:13:55.000Z,282.09
2023-01-06T11:15:22.000Z,282.09
2023-01-06T11:17:28.000Z,282.09
2023-01-06T11:18:54.000Z,282.15
2023-01-06T11:21:00.000Z,282.15
2023-01-06T11:24:33.000Z,282.21
2023-01-06T11:26:00.000Z,282.27
2023-01-06T11:28:06.000Z,282.21
2023-01-06T11:29:32.000Z,282.15
2023-01-06T11:31:38.000Z,282.15
2023-01-06T11:33:05.000Z,282.21
2023-01-06T11:35:11.000Z,282.21
2023-01-06T11:38:02.000Z,282.21
2023-01-06T11:39:29.000Z,282.21
2023-01-06T11:41:35.000Z,282.21
2023-01-06T11:43:02.000Z,282.21
2023-01-06T11:45:08.000Z,282.15
2023-01-06T11:46:34.000Z,282.15
2023-01-06T11:48:40.000Z,282.09
2023-01-06T11:50:07.000Z,282.15
2023-01-06T11:52:13.000Z,282.15
2023-01-06T11:53:39.000Z,282.15
2023-01-06T11:55:46.000Z,282.15
2023-01-06T11:57:12.000Z,282.15
2023-01-06T11:59:18.000Z,282.21
2023-01-06T12:00:45.000Z,282.21
2023-01-06T12:02:51.000Z,282.21
2023-01-06T12:04:18.000Z,282.21
2023-01-06T12:06:24.000Z,282.21
2023-01-06T12:07:50.000Z,282.21
2023-01-06T12:09:57.000Z,282.15
2023-01-06T12:11:23.000Z,282.15
2023-01-06T12:13:29.000Z,282.15
2023-01-06T12:16:28.000Z,282.15
2023-01-06T12:17:55.000Z,282.15
2023-01-06T12:20:01.000Z,282.15
2023-01-06T12:21:27.000Z,282.21
2023-01-06T12:23:33.000Z,282.21
2023-01-06T12:25:00.000Z,282.21
2023-01-06T12:27:06.000Z,282.15
2023-01-06T12:28:33.000Z,282.15
2023-01-06T12:30:39.000Z,282.15
2023-01-06T12:32:06.000Z,282.21
2023-01-06T12:34:12.000Z,282.21
2023-01-06T12:35:38.000Z,282.15
2023-01-06T12:37:44.000Z,282.21
2023-01-06T12:39:11.000Z,282.21
2023-01-06T12:41:17.000Z,282.21
2023-01-06T12:42:44.000Z,282.27
2023-01-06T12:44:50.000Z,282.21
2023-01-06T12:46:16.000Z,282.15
2023-01-06T12:48:23.000Z,282.15
2023-01-06T12:49:49.000Z,282.15
2023-01-06T12:51:55.000Z,282.21
2023-01-06T12:54:47.000Z,282.15
2023-01-06T12:56:13.000Z,282.15
2023-01-06T12:58:20.000Z,282.21
2023-01-06T12:59:46.000Z,282.21
2023-01-06T13:01:52.000Z,282.09
2023-01-06T13:03:19.000Z,282.15
2023-01-06T13:05:25.000Z,282.15
2023-01-06T13:06:52.000Z,282.09
2023-01-06T13:08:58.000Z,282.09
2023-01-06T13:10:24.000Z,282.09
2023-01-06T13:12:31.000Z,282.09
2023-01-06T13:13:57.000Z,282.02
2023-01-06T13:16:03.000Z,282.02
2023-01-06T13:17:30.000Z,282.02
2023-01-06T13:19:36.000Z,282.02
2023-01-06T13:21:03.000Z,282.02
2023-01-06T13:23:09.000Z,282.02
2023-01-06T13:24:35.000Z,282.02
2023-01-06T13:26:41.000Z,282.02
2023-01-06T13:28:08.000Z,281.96
2023-01-06T13:30:14.000Z,281.96
2023-01-06T13:33:05.000Z,281.96
2023-01-06T13:34:34.000Z,281.96
2023-01-06T13:36:40.000Z,281.96
2023-01-06T13:38:06.000Z,282.02
2023-01-06T13:40:12.000Z,282.02
2023-01-06T13:41:39.000Z,282.02
2023-01-06T13:43:45.000Z,282.02
2023-01-06T13:45:12.000Z,282.02
2023-01-06T13:47:18.000Z,282.02
2023-01-06T13:48:44.000Z,282.02
2023-01-06T13:50:50.000Z,282.09
2023-01-06T13:52:17.000Z,282.09
2023-01-06T13:54:23.000Z,282.09
2023-01-06T13:55:50.000Z,282.09
2023-01-06T13:57:56.000Z,282.15
2023-01-06T13:59:22.000Z,282.15
2023-01-06T14:01:29.000Z,282.21
2023-01-06T14:02:55.000Z,282.21
2023-01-06T14:05:02.000Z,282.15
2023-01-06T14:06:28.000Z,282.09
2023-01-06T14:08:34.000Z,282.15
2023-01-06T14:11:25.000Z,282.15
2023-01-06T14:12:52.000Z,282.15
2023-01-06T14:14:58.000Z,282.15
2023-01-06T14:16:24.000Z,282.15
2023-01-06T14:18:31.000Z,282.15
2023-01-06T14:19:57.000Z,282.15
2023-01-06T14:22:03.000Z,282.15
2023-01-06T14:23:30.000Z,282.15
2023-01-06T14:25:36.000Z,282.15
2023-01-06T14:27:03.000Z,282.21
2023-01-06T14:29:09.000Z,282.21
2023-01-06T14:30:35.000Z,282.15
2023-01-06T14:32:41.000Z,282.09
2023-01-06T14:34:08.000Z,282.09
2023-01-06T14:38:08.000Z,282.09
2023-01-06T14:41:47.000Z,282.02
2023-01-06T14:43:41.000Z,281.96
2023-01-06T14:45:08.000Z,281.96
2023-01-06T14:47:14.000Z,281.96
2023-01-06T14:48:40.000Z,281.96
2023-01-06T14:50:47.000Z,281.96
2023-01-06T14:52:13.000Z,281.96
2023-01-06T14:54:19.000Z,281.96
2023-01-06T14:55:46.000Z,281.96
2023-01-06T14:57:52.000Z,281.96
2023-01-06T14:59:18.000Z,281.96
2023-01-06T15:01:25.000Z,281.96
2023-01-06T15:02:51.000Z,281.96
2023-01-06T15:04:58.000Z,281.9
2023-01-06T15:06:24.000Z,281.84
2023-01-06T15:08:30.000Z,281.77
2023-01-06T15:09:57.000Z,281.77
2023-01-06T15:12:03.000Z,281.71
2023-01-06T15:13:30.000Z,281.77
2023-01-06T15:15:36.000Z,281.71
2023-01-06T15:17:02.000Z,281.71
2023-01-06T15:19:08.000Z,281.71
2023-01-06T15:22:00.000Z,281.71
2023-01-06T15:23:26.000Z,281.65
2023-01-06T15:25:32.000Z,281.65
2023-01-06T15:26:59.000Z,281.59
2023-01-06T15:29:05.000Z,281.52
2023-01-06T15:30:32.000Z,281.52
2023-01-06T15:32:38.000Z,281.52
2023-01-06T15:34:04.000Z,281.46
2023-01-06T15:36:10.000Z,281.52
2023-01-06T15:37:37.000Z,281.52
2023-01-06T15:39:43.000Z,281.4
2023-01-06T15:41:10.000Z,281.46
2023-01-06T15:43:16.000Z,281.34
2023-01-06T15:44:42.000Z,281.34
2023-01-06T15:46:48.000Z,281.4
2023-01-06T15:48:15.000Z,281.4
2023-01-06T15:50:21.000Z,281.34
2023-01-06T15:51:48.000Z,281.34
2023-01-06T15:53:54.000Z,281.34
2023-01-06T15:55:20.000Z,281.34
2023-01-06T15:57:26.000Z,281.4
2023-01-06T16:00:17.000Z,281.4
2023-01-06T16:01:44.000Z,281.46
2023-01-06T16:03:50.000Z,281.46
2023-01-06T16:05:16.000Z,281.52
2023-01-06T16:07:23.000Z,281.59
2023-01-06T16:08:49.000Z,281.59
2023-01-06T16:10:55.000Z,281.52
2023-01-06T16:12:24.000Z,281.59
2023-01-06T16:14:30.000Z,281.59
2023-01-06T16:15:56.000Z,281.65
2023-01-06T16:18:02.000Z,281.65
2023-01-06T16:19:29.000Z,281.65
2023-01-06T16:21:35.000Z,281.65
2023-01-06T16:23:02.000Z,281.71
2023-01-06T16:25:08.000Z,281.71
2023-01-06T16:26:34.000Z,281.71
2023-01-06T16:28:42.000Z,281.71
2023-01-06T16:30:09.000Z,281.71
2023-01-06T16:32:15.000Z,281.65
2023-01-06T16:33:42.000Z,281.71
2023-01-06T16:35:48.000Z,281.65
2023-01-06T16:38:39.000Z,281.65
2023-01-06T16:40:05.000Z,281.65
2023-01-06T16:42:12.000Z,281.65
2023-01-06T16:43:38.000Z,281.65
2023-01-06T16:45:44.000Z,281.65
2023-01-06T16:47:11.000Z,281.65
2023-01-06T16:49:17.000Z,281.71
2023-01-06T16:50:43.000Z,281.71
2023-01-06T16:52:49.000Z,281.65
2023-01-06T16:54:16.000Z,281.65
2023-01-06T16:56:22.000Z,281.59
2023-01-06T16:57:49.000Z,281.59
2023-01-06T16:59:55.000Z,281.59
2023-01-06T17:01:21.000Z,281.59
2023-01-06T17:03:28.000Z,281.52
2023-01-06T17:04:54.000Z,281.52
2023-01-06T17:07:00.000Z,281.52
2023-01-06T17:08:27.000Z,281.52
2023-01-06T17:10:33.000Z,281.52
2023-01-06T17:12:00.000Z,281.46
2023-01-06T17:14:06.000Z,281.46
2023-01-06T17:16:56.000Z,281.46
2023-01-06T17:18:24.000Z,281.52
2023-01-06T17:20:30.000Z,281.52
2023-01-06T17:21:57.000Z,281.52
2023-01-06T17:24:03.000Z,281.52
2023-01-06T17:25:29.000Z,281.52
2023-01-06T17:27:36.000Z,281.52
2023-01-06T17:29:02.000Z,281.52
2023-01-06T17:31:08.000Z,281.52
2023-01-06T17:32:35.000Z,281.52
2023-01-06T17:34:41.000Z,281.52
2023-01-06T17:36:07.000Z,281.52
2023-01-06T17:38:13.000Z,281.52
2023-01-06T17:39:40.000Z,281.52
2023-01-06T17:41:46.000Z,281.52
2023-01-06T17:43:13.000Z,281.52
2023-01-06T17:45:19.000Z,281.59
2023-01-06T17:46:46.000Z,281.59
2023-01-06T17:48:52.000Z,281.52
2023-01-06T17:50:18.000Z,281.59
2023-01-06T17:52:24.000Z,281.59
2023-01-06T17:55:15.000Z,281.59
2023-01-06T17:56:42.000Z,281.59
2023-01-06T17:58:48.000Z,281.65
2023-01-06T18:00:14.000Z,281.65
2023-01-06T18:02:20.000Z,281.59
2023-01-06T18:03:47.000Z,281.59
2023-01-06T18:05:53.000Z,281.59
2023-01-06T18:07:20.000Z,281.59
2023-01-06T18:09:26.000Z,281.52
2023-01-06T18:10:52.000Z,281.59
2023-01-06T18:12:58.000Z,281.59
2023-01-06T18:14:25.000Z,281.59
2023-01-06T18:16:31.000Z,281.59
2023-01-06T18:17:58.000Z,281.59
2023-01-06T18:20:04.000Z,281.52
2023-01-06T18:21:30.000Z,281.52
2023-01-06T18:23:36.000Z,281.52
2023-01-06T18:25:03.000Z,281.52
2023-01-06T18:27:09.000Z,281.52
2023-01-06T18:28:36.000Z,281.59
2023-01-06T18:30:42.000Z,281.59
2023-01-06T18:33:33.000Z,281.59
2023-01-06T18:35:00.000Z,281.59
2023-01-06T18:37:06.000Z,281.52
2023-01-06T18:38:32.000Z,281.59
2023-01-06T18:40:38.000Z,281.52
2023-01-06T18:42:05.000Z,281.59
2023-01-06T18:44:11.000Z,281.52
2023-01-06T18:45:37.000Z,281.52
2023-01-06T18:47:43.000Z,281.52
2023-01-06T18:49:10.000Z,281.52
2023-01-06T18:51:16.000Z,281.52
2023-01-06T18:52:43.000Z,281.52
2023-01-06T18:54:49.000Z,281.52
2023-01-06T18:56:15.000Z,281.46
2023-01-06T18:58:22.000Z,281.52
2023-01-06T18:59:48.000Z,281.52
2023-01-06T19:01:54.000Z,281.46
2023-01-06T19:03:21.000Z,281.46
2023-01-06T19:05:27.000Z,281.46
2023-01-06T19:06:54.000Z,281.46
2023-01-06T19:09:00.000Z,281.46
2023-01-06T19:11:51.000Z,281.46
2023-01-06T19:13:19.000Z,281.46
2023-01-06T19:15:25.000Z,281.4
2023-01-06T19:16:51.000Z,281.46
2023-01-06T19:18:57.000Z,281.46
2023-01-06T19:20:24.000Z,281.46
2023-01-06T19:22:30.000Z,281.46
2023-01-06T19:23:56.000Z,281.46
2023-01-06T19:26:03.000Z,281.46
2023-01-06T19:27:29.000Z,281.52
2023-01-06T19:29:35.000Z,281.52
2023-01-06T19:31:02.000Z,281.46
2023-01-06T19:33:08.000Z,281.46
2023-01-06T19:34:35.000Z,281.46
2023-01-06T19:36:41.000Z,281.52
2023-01-06T19:38:07.000Z,281.52
2023-01-06T19:40:13.000Z,281.52
2023-01-06T19:41:40.000Z,281.59
2023-01-06T19:43:46.000Z,281.59
2023-01-06T19:45:13.000Z,281.59
2023-01-06T19:47:19.000Z,281.59
2023-01-06T19:50:10.000Z,281.59
2023-01-06T19:51:36.000Z,281.59
2023-01-06T19:53:42.000Z,281.59
2023-01-06T19:55:09.000Z,281.59
2023-01-06T19:57:15.000Z,281.52
2023-01-06T19:58:42.000Z,281.52
2023-01-06T20:00:48.000Z,281.52
2023-01-06T20:02:14.000Z,281.46
2023-01-06T20:04:21.000Z,281.46
2023-01-06T20:05:47.000Z,281.46
2023-01-06T20:07:53.000Z,281.46
2023-01-06T20:09:20.000Z,281.4
2023-01-06T20:11:26.000Z,281.34
2023-01-06T20:12:52.000Z,281.34
2023-01-06T20:14:59.000Z,281.4
2023-01-06T20:16:25.000Z,281.4
2023-01-06T20:18:31.000Z,281.4
2023-01-06T20:19:58.000Z,281.4
2023-01-06T20:22:04.000Z,281.4
2023-01-06T20:23:31.000Z,281.4
2023-01-06T20:25:37.000Z,281.4
2023-01-06T20:28:28.000Z,281.4
2023-01-06T20:29:54.000Z,281.4
2023-01-06T20:32:00.000Z,281.4
2023-01-06T20:33:27.000Z,281.4
2023-01-06T20:35:33.000Z,281.4
2023-01-06T20:37:00.000Z,281.46
2023-01-06T20:39:06.000Z,281.46
2023-01-06T20:40:32.000Z,281.46
2023-01-06T20:42:38.000Z,281.46
2023-01-06T20:44:05.000Z,281.4
2023-01-06T20:46:11.000Z,281.46
2023-01-06T20:47:38.000Z,281.46
2023-01-06T20:49:44.000Z,281.4
2023-01-06T20:51:10.000Z,281.4
2023-01-06T20:53:16.000Z,281.4
2023-01-06T20:54:43.000Z,281.4
2023-01-06T20:56:49.000Z,281.4
2023-01-06T20:58:15.000Z,281.4
2023-01-06T21:00:22.000Z,281.4
2023-01-06T21:01:48.000Z,281.46
2023-01-06T21:03:55.000Z,281.46
2023-01-06T21:06:46.000Z,281.46
2023-01-06T21:08:12.000Z,281.46
2023-01-06T21:10:18.000Z,281.4
2023-01-06T21:11:45.000Z,281.4
2023-01-06T21:13:51.000Z,281.4
2023-01-06T21:15:18.000Z,281.4
2023-01-06T21:17:24.000Z,281.4
2023-01-06T21:18:50.000Z,281.4
2023-01-06T21:20:56.000Z,281.46
2023-01-06T21:22:23.000Z,281.46
2023-01-06T21:24:29.000Z,281.4
2023-01-06T21:25:56.000Z,281.4
2023-01-06T21:28:02.000Z,281.4
2023-01-06T21:29:28.000Z,281.46
2023-01-06T21:31:34.000Z,281.46
2023-01-06T21:33:01.000Z,281.46
2023-01-06T21:35:07.000Z,281.46
2023-01-06T21:36:34.000Z,281.46
2023-01-06T21:38:40.000Z,281.46
2023-01-06T21:40:06.000Z,281.46
2023-01-06T21:42:12.000Z,281.46
2023-01-06T21:45:03.000Z,281.46
2023-01-06T21:46:30.000Z,281.46
2023-01-06T21:48:36.000Z,281.46
2023-01-06T21:50:03.000Z,281.46
2023-01-06T21:52:09.000Z,281.46
2023-01-06T21:53:35.000Z,281.46
2023-01-06T21:55:41.000Z,281.46
2023-01-06T21:57:08.000Z,281.46
2023-01-06T21:59:14.000Z,281.46
2023-01-06T22:00:41.000Z,281.46
2023-01-06T22:02:47.000Z,281.46
2023-01-06T22:04:13.000Z,281.46
2023-01-06T22:06:20.000Z,281.46
2023-01-06T22:07:46.000Z,281.46
2023-01-06T22:09:52.000Z,281.46
2023-01-06T22:11:19.000Z,281.52
2023-01-06T22:13:25.000Z,281.52
2023-01-06T22:14:51.000Z,281.52
2023-01-06T22:16:58.000Z,281.46
2023-01-06T22:18:25.000Z,281.46
2023-01-06T22:20:31.000Z,281.46
2023-01-06T22:23:22.000Z,281.4
2023-01-06T22:24:49.000Z,281.4
2023-01-06T22:26:55.000Z,281.46
2023-01-06T22:28:21.000Z,281.4
2023-01-06T22:30:28.000Z,281.4
2023-01-06T22:31:54.000Z,281.4
2023-01-06T22:34:00.000Z,281.34
2023-01-06T22:35:27.000Z,281.34
2023-01-06T22:37:33.000Z,281.34
2023-01-06T22:38:59.000Z,281.34
2023-01-06T22:41:05.000Z,281.34
2023-01-06T22:42:32.000Z,281.34
2023-01-06T22:44:38.000Z,281.34
2023-01-06T22:46:05.000Z,281.34
2023-01-06T22:48:11.000Z,281.34
2023-01-06T22:49:37.000Z,281.34
2023-01-06T22:51:43.000Z,281.34
2023-01-06T22:53:10.000Z,281.34
2023-01-06T22:55:16.000Z,281.34
2023-01-06T22:56:42.000Z,281.34
2023-01-06T22:58:49.000Z,281.34